CFB Trenton
CYTR : rendu visible

Aérodrome :











RETROUVEZ-NOUS SUR...

 
LOGIN :

S'inscrire | Disclaimer

   EN    FR    IT 

 









Légende :    VFR   VFR Marginal   IFR   IFR Intensif   IFR Très Intensif
Visi : 
Plafond : 
>= 8 km
>= 3000ft
5 à 8 km
1000 à 3000 ft
1500m à 5 km
500 à 1000 ft
800 à 1500m
200 à 500 ft
< 800m
< 200 ft
Symboles :   Orages  Brouillard  Fortes neiges  Fortes précipitations  Vent > 20 kt






- Altitude de l'aérodrome : 283 ft
- Code IATA : YTR


CYTR - CFB Trenton

DERNIER METAR :
  • 312000Z 28010G18KT 15SM BKN060 BKN080 15/02 A3016 RMK SC5AC1 SLP216

METARs EXPIRÉS :
  • 311900Z 29010G15KT 15SM BKN055 BKN080 15/01 A3017 RMK SC6AC1 SLP219
  • 311800Z 31008KT 15SM BKN060 14/00 A3018 RMK SC7 SLP222

TAF TAF CYTR
Valide du 31 à 18h jusqu'au 01 à 18h UTC


311731Z 3118/0118 30010G20KT P6SM BKN060
TEMPO 3118/0101 SCT060
FM010200 29007KT P6SM FEW100
BECMG 0108/0110 24005KT
FM011300 24005KT P6SM BKN080
BECMG 0114/0116 24010G20KT RMK NXT FCST BY 010000Z
FIR CZYZ / Amérique du Nord



MET'MAP, la Météo Aéronautique d'un coup d'oeil ! - Copyright ORBIFLY Décembre 2007 - Disclaimer

ORBIFLY MET'MAP TEAM :

Programmation & Développement : Alexandra Zaïnal
Sur une idée originale de : Baudouin d'Aumeries
Assistance à la programmation : Marc-Olivier Méhu
Soutien technique & logistique : Manuel Goepfert

Contact : metmap@orbifly.com




SOURCES & CREDITS :

   NOAA       Earth
Advisory